Time;durP1;ratioP1;P1;durP2;ratioP2;P2;SDS_P1;SDS_P2;PMS_P1;PMS_P2;Temp;Humidity;BMP_temperature;BMP_pressure;BME280_temperature;BME280_humidity;BME280_pressure;Samples;Min_cycle;Max_cycle;Signal;HPM_P1;HPM_P2
2023/10/18 00:00:53;;;;;;;6.30;5.90;;;;;;;;;;5981524;29;20051;-91
2023/10/18 00:03:56;;;;;;;6.20;5.75;;;;;;;;;;5980978;29;20469;-91
2023/10/18 00:06:58;;;;;;;6.03;5.60;;;;;;;;;;5988250;29;20057;-91
2023/10/18 00:10:00;;;;;;;5.47;5.05;;;;;;;;;;5990192;29;20046;-92
2023/10/18 00:13:02;;;;;;;4.68;4.50;;;;;;;;;;5984480;29;20433;-92
2023/10/18 00:16:05;;;;;;;6.60;6.30;;;;;;;;;;5994647;29;20524;-92
2023/10/18 00:19:07;;;;;;;6.60;6.15;;;;;;;;;;5984083;29;20061;-92
2023/10/18 00:22:09;;;;;;;5.65;5.35;;;;;;;;;;5984910;29;20162;-92
2023/10/18 00:25:12;;;;;;;7.00;5.72;;;;;;;;;;5984002;29;20062;-92
2023/10/18 00:28:14;;;;;;;4.82;4.63;;;;;;;;;;5995126;29;20050;-91
2023/10/18 00:31:20;;;;;;;5.43;4.97;;;;;;;;;;5987701;29;20057;-92
2023/10/18 00:34:22;;;;;;;5.25;5.03;;;;;;;;;;5992663;29;20556;-93
2023/10/18 00:37:25;;;;;;;5.38;5.07;;;;;;;;;;5988425;29;20046;-93
2023/10/18 00:43:33;;;;;;;5.55;5.25;;;;;;;;;;5985865;29;20054;-92
2023/10/18 00:46:38;;;;;;;4.00;3.83;;;;;;;;;;5983970;29;20053;-93
2023/10/18 00:49:41;;;;;;;4.80;4.60;;;;;;;;;;5981899;29;20530;-92
2023/10/18 00:52:42;;;;;;;5.43;5.18;;;;;;;;;;5983579;29;20054;-92
2023/10/18 00:55:44;;;;;;;7.35;6.88;;;;;;;;;;5966513;29;20077;-93
2023/10/18 00:58:47;;;;;;;5.00;4.80;;;;;;;;;;5983367;29;20042;-92
2023/10/18 01:02:14;;;;;;;5.57;5.28;;;;;;;;;;5990791;29;20045;-92
2023/10/18 01:05:12;;;;;;;5.45;5.10;;;;;;;;;;5987445;29;20065;-92
2023/10/18 01:08:14;;;;;;;5.88;5.57;;;;;;;;;;5983930;29;20516;-92
2023/10/18 01:11:19;;;;;;;7.03;6.35;;;;;;;;;;5982727;29;20106;-92
2023/10/18 01:14:24;;;;;;;5.03;4.82;;;;;;;;;;5984619;29;20054;-92
2023/10/18 01:17:26;;;;;;;5.65;5.35;;;;;;;;;;5976285;29;20398;-92
2023/10/18 01:23:38;;;;;;;5.00;4.80;;;;;;;;;;5993597;29;20057;-92
2023/10/18 01:26:40;;;;;;;6.45;5.97;;;;;;;;;;5985030;29;20581;-92
2023/10/18 01:29:41;;;;;;;4.90;4.60;;;;;;;;;;5981023;29;20093;-92
2023/10/18 01:32:44;;;;;;;10.73;5.05;;;;;;;;;;5981597;29;20073;-92
2023/10/18 01:35:50;;;;;;;4.70;4.50;;;;;;;;;;5995062;29;20524;-93
2023/10/18 01:38:52;;;;;;;5.63;5.25;;;;;;;;;;5982621;29;20139;-92
2023/10/18 01:41:55;;;;;;;6.45;6.03;;;;;;;;;;5992386;29;20053;-93
2023/10/18 01:44:56;;;;;;;6.57;6.07;;;;;;;;;;5992017;29;20054;-93
2023/10/18 01:47:58;;;;;;;5.90;5.40;;;;;;;;;;5983975;29;20382;-93
2023/10/18 01:51:01;;;;;;;7.53;7.13;;;;;;;;;;5989109;29;20191;-93
2023/10/18 01:54:09;;;;;;;7.10;6.35;;;;;;;;;;5992326;29;20058;-93
2023/10/18 01:57:12;;;;;;;7.28;6.80;;;;;;;;;;5982462;29;20057;-93
2023/10/18 02:00:19;;;;;;;6.60;6.20;;;;;;;;;;5987365;29;20045;-92
2023/10/18 02:03:23;;;;;;;6.10;5.72;;;;;;;;;;5991545;29;20137;-93
2023/10/18 02:06:25;;;;;;;5.40;5.20;;;;;;;;;;5986070;29;20042;-92
2023/10/18 02:09:28;;;;;;;6.22;5.82;;;;;;;;;;5984084;29;20053;-93
2023/10/18 02:12:30;;;;;;;6.80;6.40;;;;;;;;;;5984670;29;20135;-92
2023/10/18 02:15:32;;;;;;;6.00;5.43;;;;;;;;;;5987304;29;20120;-92
2023/10/18 02:18:39;;;;;;;5.30;5.00;;;;;;;;;;5981252;29;20065;-92
2023/10/18 02:21:42;;;;;;;6.82;6.32;;;;;;;;;;5982378;29;20050;-92
2023/10/18 02:24:43;;;;;;;5.88;5.57;;;;;;;;;;5989124;29;20046;-92
2023/10/18 02:27:46;;;;;;;7.55;7.03;;;;;;;;;;5993162;29;20065;-92
2023/10/18 02:30:55;;;;;;;6.90;6.50;;;;;;;;;;5988435;29;20148;-92
2023/10/18 02:33:57;;;;;;;6.07;5.68;;;;;;;;;;5996021;29;20117;-92
2023/10/18 02:37:00;;;;;;;7.82;7.35;;;;;;;;;;5984394;29;20590;-92
2023/10/18 02:40:08;;;;;;;6.80;6.40;;;;;;;;;;5990433;29;20057;-92
2023/10/18 02:43:11;;;;;;;7.30;6.65;;;;;;;;;;5980215;29;20042;-92
2023/10/18 02:46:23;;;;;;;5.30;5.10;;;;;;;;;;5984902;29;20187;-92
2023/10/18 02:49:28;;;;;;;6.68;6.25;;;;;;;;;;5992045;29;20516;-92
2023/10/18 02:52:30;;;;;;;5.32;5.13;;;;;;;;;;5992810;29;20425;-92
2023/10/18 02:55:38;;;;;;;5.65;5.45;;;;;;;;;;5990710;29;20113;-92
2023/10/18 02:58:40;;;;;;;5.57;5.28;;;;;;;;;;5992647;29;20046;-92
2023/10/18 03:01:42;;;;;;;8.10;7.47;;;;;;;;;;5979277;29;20054;-91
2023/10/18 03:04:47;;;;;;;5.82;5.55;;;;;;;;;;5979042;29;20050;-92
2023/10/18 03:07:49;;;;;;;6.40;5.03;;;;;;;;;;5990318;29;20053;-92
2023/10/18 03:10:51;;;;;;;6.22;5.78;;;;;;;;;;5989542;29;20054;-92
2023/10/18 03:13:57;;;;;;;6.35;5.95;;;;;;;;;;5964571;29;20061;-92
2023/10/18 03:17:09;;;;;;;6.57;6.18;;;;;;;;;;5992056;29;20093;-92
2023/10/18 03:20:23;;;;;;;7.68;7.07;;;;;;;;;;5991334;29;20052;-92
2023/10/18 03:23:26;;;;;;;5.68;5.43;;;;;;;;;;5992363;29;20050;-92
2023/10/18 03:26:35;;;;;;;6.45;5.95;;;;;;;;;;5989993;29;20065;-92
2023/10/18 03:29:43;;;;;;;6.95;6.47;;;;;;;;;;5991233;29;20141;-92
2023/10/18 03:32:49;;;;;;;6.00;5.60;;;;;;;;;;5993091;29;20076;-92
2023/10/18 03:36:17;;;;;;;6.32;5.85;;;;;;;;;;5979220;29;20103;-91
2023/10/18 03:39:24;;;;;;;7.22;6.57;;;;;;;;;;5982524;29;20059;-91
2023/10/18 03:42:35;;;;;;;6.93;6.53;;;;;;;;;;5997904;29;20688;-92
2023/10/18 03:49:10;;;;;;;6.57;6.05;;;;;;;;;;6034143;29;20049;-92
2023/10/18 03:55:35;;;;;;;7.60;7.07;;;;;;;;;;6029584;29;20061;-91
2023/10/18 03:58:39;;;;;;;6.25;5.82;;;;;;;;;;6023941;29;20447;-92
2023/10/18 04:05:18;;;;;;;6.77;6.37;;;;;;;;;;6044785;29;20270;-91
2023/10/18 04:08:20;;;;;;;6.65;6.05;;;;;;;;;;6045228;29;20310;-92
2023/10/18 04:11:26;;;;;;;8.18;7.53;;;;;;;;;;6027915;29;20041;-91
2023/10/18 04:14:29;;;;;;;8.27;6.10;;;;;;;;;;6037952;29;20090;-91
2023/10/18 04:17:37;;;;;;;6.57;6.07;;;;;;;;;;6045595;29;20475;-92
2023/10/18 04:20:43;;;;;;;6.90;6.40;;;;;;;;;;6045220;29;20179;-92
2023/10/18 04:23:53;;;;;;;6.97;6.47;;;;;;;;;;6032574;29;20213;-92
2023/10/18 04:26:56;;;;;;;5.13;4.72;;;;;;;;;;6007298;29;20046;-92
2023/10/18 04:30:00;;;;;;;6.57;6.13;;;;;;;;;;5989698;29;20050;-92
2023/10/18 04:36:20;;;;;;;6.47;6.18;;;;;;;;;;5991844;29;20145;-92
2023/10/18 04:39:26;;;;;;;5.57;5.18;;;;;;;;;;5987997;29;20046;-93
2023/10/18 04:42:29;;;;;;;5.50;5.13;;;;;;;;;;5994873;29;20169;-93
2023/10/18 04:45:30;;;;;;;6.28;5.28;;;;;;;;;;6006175;29;20057;-93
2023/10/18 04:51:54;;;;;;;5.95;5.65;;;;;;;;;;5984051;29;20046;-92
2023/10/18 04:55:05;;;;;;;5.20;5.00;;;;;;;;;;5982642;29;20440;-93
2023/10/18 04:58:07;;;;;;;7.50;6.90;;;;;;;;;;5984918;29;20061;-92
2023/10/18 05:01:13;;;;;;;7.05;5.85;;;;;;;;;;5994931;29;20057;-92
2023/10/18 05:04:36;;;;;;;6.15;5.65;;;;;;;;;;5983204;29;20089;-93
2023/10/18 05:07:42;;;;;;;5.80;5.53;;;;;;;;;;5983261;29;20057;-92
2023/10/18 05:10:46;;;;;;;6.25;5.82;;;;;;;;;;5989375;29;20144;-92
2023/10/18 05:13:48;;;;;;;5.45;5.18;;;;;;;;;;5981718;29;20189;-92
2023/10/18 05:16:50;;;;;;;5.25;5.05;;;;;;;;;;5982948;29;20053;-92
2023/10/18 05:19:55;;;;;;;6.68;6.07;;;;;;;;;;5975368;29;20102;-92
2023/10/18 05:23:00;;;;;;;4.47;4.28;;;;;;;;;;5993425;29;20046;-92
2023/10/18 05:29:09;;;;;;;7.03;6.53;;;;;;;;;;5986673;29;20042;-92
2023/10/18 05:32:36;;;;;;;6.53;6.22;;;;;;;;;;5983423;29;20437;-93
2023/10/18 05:35:55;;;;;;;5.35;5.15;;;;;;;;;;5989565;29;20045;-92
2023/10/18 05:39:06;;;;;;;4.90;4.60;;;;;;;;;;5991547;29;20050;-92
2023/10/18 05:42:20;;;;;;;5.60;5.25;;;;;;;;;;5984175;29;20048;-92
2023/10/18 05:45:22;;;;;;;5.90;5.60;;;;;;;;;;5993751;29;20047;-92
2023/10/18 05:48:24;;;;;;;5.82;5.53;;;;;;;;;;5982490;29;20053;-92
2023/10/18 05:51:32;;;;;;;7.20;6.75;;;;;;;;;;6000197;29;20057;-92
2023/10/18 05:54:39;;;;;;;8.55;5.65;;;;;;;;;;5985459;29;20061;-92
2023/10/18 05:57:42;;;;;;;6.28;5.75;;;;;;;;;;5980491;29;20054;-90
2023/10/18 06:00:43;;;;;;;5.65;5.38;;;;;;;;;;5980414;29;20511;-91
2023/10/18 06:03:45;;;;;;;4.93;4.65;;;;;;;;;;5993504;29;20038;-90
2023/10/18 06:06:47;;;;;;;5.55;5.25;;;;;;;;;;5992806;29;20057;-91
2023/10/18 06:09:58;;;;;;;9.45;5.07;;;;;;;;;;5984885;29;20141;-90
2023/10/18 06:13:09;;;;;;;8.10;7.35;;;;;;;;;;5993393;29;20070;-91
2023/10/18 06:16:18;;;;;;;7.03;6.70;;;;;;;;;;5989183;29;20420;-90
2023/10/18 06:19:27;;;;;;;4.93;4.63;;;;;;;;;;5984095;29;20046;-91
2023/10/18 06:22:38;;;;;;;6.50;6.00;;;;;;;;;;5987466;29;20051;-91
2023/10/18 06:25:49;;;;;;;;;;;;;;;;;;5990819;29;20050;-91
2023/10/18 06:28:53;;;;;;;8.48;6.72;;;;;;;;;;5984868;29;20013;-90
2023/10/18 06:31:56;;;;;;;4.78;4.57;;;;;;;;;;5987277;29;20042;-90
2023/10/18 06:35:09;;;;;;;7.60;7.10;;;;;;;;;;5985289;29;20053;-90
2023/10/18 06:38:17;;;;;;;7.03;5.18;;;;;;;;;;5988356;29;20061;-90
2023/10/18 06:41:18;;;;;;;4.95;4.75;;;;;;;;;;5976346;29;20042;-90
2023/10/18 06:44:20;;;;;;;6.00;5.70;;;;;;;;;;5983040;29;20069;-91
2023/10/18 06:47:30;;;;;;;5.90;5.60;;;;;;;;;;5976742;29;20050;-91
2023/10/18 06:50:32;;;;;;;5.60;5.10;;;;;;;;;;5989738;29;20038;-91
2023/10/18 06:53:38;;;;;;;5.32;5.10;;;;;;;;;;5992540;29;20053;-90
2023/10/18 06:56:40;;;;;;;4.72;4.53;;;;;;;;;;5992858;29;20046;-90
2023/10/18 06:59:44;;;;;;;4.30;4.15;;;;;;;;;;5981852;29;20142;-91
2023/10/18 07:02:48;;;;;;;5.68;5.28;;;;;;;;;;5990389;29;20053;-91
2023/10/18 07:05:52;;;;;;;5.43;5.03;;;;;;;;;;5992385;29;20408;-91
2023/10/18 07:08:53;;;;;;;5.43;5.20;;;;;;;;;;5988176;29;20118;-91
2023/10/18 07:12:03;;;;;;;6.32;6.03;;;;;;;;;;5999567;29;20053;-90
2023/10/18 07:15:09;;;;;;;5.43;5.22;;;;;;;;;;5983913;29;20511;-90
2023/10/18 07:18:14;;;;;;;6.63;6.22;;;;;;;;;;6001124;29;20054;-90
2023/10/18 07:21:24;;;;;;;7.07;6.60;;;;;;;;;;5984314;29;20054;-90
2023/10/18 07:24:41;;;;;;;6.32;5.93;;;;;;;;;;5975855;29;20050;-91
2023/10/18 07:27:43;;;;;;;4.70;4.50;;;;;;;;;;5981803;29;20058;-91
2023/10/18 07:30:46;;;;;;;6.72;6.32;;;;;;;;;;5985468;29;20073;-90
2023/10/18 07:33:50;;;;;;;6.75;6.15;;;;;;;;;;5984829;29;20043;-91
2023/10/18 07:36:54;;;;;;;8.52;5.70;;;;;;;;;;5994586;29;20492;-90
2023/10/18 07:39:56;;;;;;;6.20;5.90;;;;;;;;;;5998880;29;20046;-91
2023/10/18 07:42:58;;;;;;;7.95;7.45;;;;;;;;;;6000678;29;20046;-91
2023/10/18 07:46:06;;;;;;;6.65;6.28;;;;;;;;;;5989263;29;20560;-94
2023/10/18 07:49:16;;;;;;;7.15;6.70;;;;;;;;;;6016827;29;20056;-91
2023/10/18 07:52:18;;;;;;;7.35;6.85;;;;;;;;;;5989703;29;20535;-91
2023/10/18 07:55:21;;;;;;;5.80;5.45;;;;;;;;;;6010945;29;20045;-92
2023/10/18 07:58:24;;;;;;;6.15;5.65;;;;;;;;;;5994336;29;20061;-92
2023/10/18 08:04:47;;;;;;;6.80;6.22;;;;;;;;;;5986683;29;20501;-91
2023/10/18 08:07:49;;;;;;;7.05;6.50;;;;;;;;;;5987526;29;20049;-92
2023/10/18 08:10:55;;;;;;;7.45;7.05;;;;;;;;;;5991167;29;20056;-91
2023/10/18 08:13:57;;;;;;;7.15;6.75;;;;;;;;;;5991866;29;20053;-91
2023/10/18 08:17:08;;;;;;;6.07;5.78;;;;;;;;;;6002922;29;20125;-89
2023/10/18 08:26:26;;;;;;;6.78;6.18;;;;;;;;;;5991568;29;20865;-92
2023/10/18 08:29:28;;;;;;;25.25;6.22;;;;;;;;;;5994322;29;20441;-91
2023/10/18 08:32:30;;;;;;;6.25;5.88;;;;;;;;;;5998034;29;20046;-92
2023/10/18 08:35:32;;;;;;;7.03;6.60;;;;;;;;;;5983375;29;20061;-92
2023/10/18 08:38:34;;;;;;;5.95;5.53;;;;;;;;;;5985983;29;20547;-91
2023/10/18 08:41:44;;;;;;;6.35;6.00;;;;;;;;;;5993441;29;20520;-91
2023/10/18 08:44:50;;;;;;;6.85;6.30;;;;;;;;;;5967462;29;20088;-91
2023/10/18 08:47:56;;;;;;;7.47;6.78;;;;;;;;;;5983092;29;20050;-91
2023/10/18 08:50:59;;;;;;;8.05;6.18;;;;;;;;;;5998990;29;20079;-91
2023/10/18 08:54:01;;;;;;;6.75;6.35;;;;;;;;;;5991147;29;20539;-91
2023/10/18 08:57:09;;;;;;;6.72;6.35;;;;;;;;;;6000053;29;20517;-92
2023/10/18 09:03:27;;;;;;;6.72;6.22;;;;;;;;;;5984604;29;20042;-92
2023/10/18 09:06:35;;;;;;;11.82;7.65;;;;;;;;;;5983408;29;20050;-92
2023/10/18 09:09:37;;;;;;;6.38;5.90;;;;;;;;;;5991726;29;20362;-92
2023/10/18 09:19:01;;;;;;;9.40;8.68;;;;;;;;;;5993378;29;20054;-92
2023/10/18 09:22:03;;;;;;;13.27;9.00;;;;;;;;;;5998752;29;20050;-92
2023/10/18 09:25:05;;;;;;;8.20;7.50;;;;;;;;;;5988198;29;20760;-92
2023/10/18 09:28:10;;;;;;;7.78;7.18;;;;;;;;;;5980409;29;20060;-92
2023/10/18 09:31:18;;;;;;;24.23;9.10;;;;;;;;;;6004522;29;20073;-92
2023/10/18 09:34:33;;;;;;;8.75;7.95;;;;;;;;;;5989399;29;20050;-92
2023/10/18 09:37:41;;;;;;;9.98;9.20;;;;;;;;;;5985072;29;20078;-92
2023/10/18 09:40:44;;;;;;;9.70;8.85;;;;;;;;;;5991521;29;20413;-93
2023/10/18 09:43:52;;;;;;;10.25;7.55;;;;;;;;;;5993596;29;20054;-93
2023/10/18 09:46:54;;;;;;;9.43;8.60;;;;;;;;;;5994310;29;20053;-93
2023/10/18 09:49:56;;;;;;;8.40;7.78;;;;;;;;;;5994903;29;20183;-94
2023/10/18 09:52:58;;;;;;;7.57;6.90;;;;;;;;;;5996066;29;21273;-94
2023/10/18 09:56:00;;;;;;;8.13;7.45;;;;;;;;;;5995812;29;20416;-94
2023/10/18 09:59:09;;;;;;;8.63;7.85;;;;;;;;;;5985418;29;20068;-93
2023/10/18 10:02:15;;;;;;;7.40;6.93;;;;;;;;;;5987461;29;20049;-93
2023/10/18 10:05:26;;;;;;;7.10;6.45;;;;;;;;;;5993548;29;20045;-93
2023/10/18 10:08:31;;;;;;;;;;;;;;;;;;5982129;29;20042;-93
2023/10/18 10:11:36;;;;;;;8.23;7.70;;;;;;;;;;5987947;29;20108;-94
2023/10/18 10:14:38;;;;;;;6.55;6.18;;;;;;;;;;5985301;29;20065;-93
2023/10/18 10:17:55;;;;;;;6.57;6.13;;;;;;;;;;5987615;29;20485;-93
2023/10/18 10:20:58;;;;;;;6.28;5.85;;;;;;;;;;5984893;29;20353;-93
2023/10/18 10:27:39;;;;;;;5.18;4.88;;;;;;;;;;5992862;29;20559;-93
2023/10/18 10:30:43;;;;;;;7.07;6.68;;;;;;;;;;5983687;29;20051;-94
2023/10/18 10:34:05;;;;;;;4.97;4.70;;;;;;;;;;5994915;29;20049;-94
2023/10/18 10:37:08;;;;;;;4.63;4.43;;;;;;;;;;5983373;29;20042;-93
2023/10/18 10:40:19;;;;;;;5.72;5.43;;;;;;;;;;5983916;29;20058;-94
2023/10/18 10:43:22;;;;;;;;;;;;;;;;;;5989146;29;20046;-95
2023/10/18 10:46:37;;;;;;;6.28;5.25;;;;;;;;;;5983749;29;19928;-95
2023/10/18 10:49:47;;;;;;;8.45;7.68;;;;;;;;;;5988315;29;20497;-95
2023/10/18 10:52:49;;;;;;;6.45;5.97;;;;;;;;;;5995901;29;20058;-95
2023/10/18 10:55:51;;;;;;;5.72;5.43;;;;;;;;;;5982585;29;20058;-95
2023/10/18 10:59:26;;;;;;;8.75;7.45;;;;;;;;;;5991874;29;20052;-95
2023/10/18 11:02:39;;;;;;;6.93;6.43;;;;;;;;;;5994615;29;20164;-95
2023/10/18 11:05:45;;;;;;;6.43;6.00;;;;;;;;;;5980858;29;20058;-94
2023/10/18 11:08:46;;;;;;;6.85;6.03;;;;;;;;;;5982354;29;20039;-95
2023/10/18 11:11:48;;;;;;;6.25;5.85;;;;;;;;;;5984018;29;20050;-96
2023/10/18 11:14:50;;;;;;;6.10;5.55;;;;;;;;;;5987891;29;20690;-95
2023/10/18 11:17:52;;;;;;;6.00;5.55;;;;;;;;;;5981632;29;20043;-95
2023/10/18 11:21:18;;;;;;;6.18;5.68;;;;;;;;;;5999010;29;20139;-95
2023/10/18 11:24:21;;;;;;;5.18;4.97;;;;;;;;;;5988979;29;20042;-96
2023/10/18 11:27:37;;;;;;;5.40;5.10;;;;;;;;;;5989834;29;20050;-96
2023/10/18 11:30:39;;;;;;;5.55;5.15;;;;;;;;;;5992742;29;20045;-95
2023/10/18 11:33:47;;;;;;;5.78;5.35;;;;;;;;;;5987328;29;20455;-96
2023/10/18 11:36:50;;;;;;;5.07;4.80;;;;;;;;;;5991923;29;20050;-96
2023/10/18 11:39:55;;;;;;;5.30;4.97;;;;;;;;;;5987625;29;20060;-95
2023/10/18 11:43:10;;;;;;;8.07;5.80;;;;;;;;;;5986424;29;20057;-96
2023/10/18 11:46:14;;;;;;;5.18;4.97;;;;;;;;;;6004221;29;20054;-95
2023/10/18 11:49:19;;;;;;;5.10;4.75;;;;;;;;;;5985106;29;20481;-95
2023/10/18 11:52:27;;;;;;;5.43;4.65;;;;;;;;;;5991163;29;20436;-96
2023/10/18 11:55:29;;;;;;;5.18;4.88;;;;;;;;;;5987723;29;20126;-96
2023/10/18 11:58:32;;;;;;;4.95;4.70;;;;;;;;;;5999023;29;20091;-96
2023/10/18 12:01:34;;;;;;;4.47;4.18;;;;;;;;;;6008950;29;20049;-95
2023/10/18 12:04:45;;;;;;;4.93;4.63;;;;;;;;;;6002026;29;20050;-95
2023/10/18 12:07:47;;;;;;;4.93;4.72;;;;;;;;;;5993625;29;20043;-96
2023/10/18 12:10:49;;;;;;;5.32;5.03;;;;;;;;;;5984288;29;20509;-96
2023/10/18 12:13:52;;;;;;;5.70;5.30;;;;;;;;;;5992106;29;20084;-95
2023/10/18 12:16:54;;;;;;;5.35;4.95;;;;;;;;;;5994969;29;20051;-96
2023/10/18 12:19:58;;;;;;;5.00;4.45;;;;;;;;;;5988434;29;20061;-95
2023/10/18 12:23:04;;;;;;;5.60;5.28;;;;;;;;;;5993130;29;20056;-96
2023/10/18 12:26:07;;;;;;;6.22;5.40;;;;;;;;;;5995715;29;20092;-96
2023/10/18 12:29:15;;;;;;;4.75;4.45;;;;;;;;;;5994354;29;20052;-95
2023/10/18 12:32:30;;;;;;;4.63;4.32;;;;;;;;;;6005825;29;20055;-96
2023/10/18 12:35:33;;;;;;;5.18;4.68;;;;;;;;;;5983502;29;20062;-95
2023/10/18 12:38:37;;;;;;;4.20;4.00;;;;;;;;;;5985596;29;20050;-96
2023/10/18 12:41:41;;;;;;;4.30;4.10;;;;;;;;;;5981214;29;20061;-96
2023/10/18 12:44:46;;;;;;;4.22;3.95;;;;;;;;;;5984274;29;20089;-95
2023/10/18 12:47:48;;;;;;;4.80;4.50;;;;;;;;;;5982609;29;20062;-95
2023/10/18 12:50:54;;;;;;;4.97;4.65;;;;;;;;;;5989377;29;20236;-96
2023/10/18 12:53:57;;;;;;;4.35;4.05;;;;;;;;;;6002792;29;20054;-95
2023/10/18 12:57:17;;;;;;;4.57;4.38;;;;;;;;;;5993128;29;20064;-96
2023/10/18 13:00:23;;;;;;;3.88;3.78;;;;;;;;;;5987753;29;20558;-96
2023/10/18 13:03:33;;;;;;;3.20;3.10;;;;;;;;;;6000506;29;20509;-96
2023/10/18 13:06:35;;;;;;;4.00;3.78;;;;;;;;;;5992050;29;20677;-96
2023/10/18 13:09:43;;;;;;;6.15;5.57;;;;;;;;;;5992516;29;20055;-96
2023/10/18 13:13:04;;;;;;;4.32;4.13;;;;;;;;;;5990138;29;20050;-96
2023/10/18 13:16:13;;;;;;;5.97;3.83;;;;;;;;;;5999452;29;20043;-96
2023/10/18 13:19:15;;;;;;;4.05;3.83;;;;;;;;;;5990769;29;20493;-95
2023/10/18 13:22:17;;;;;;;4.22;3.95;;;;;;;;;;5992139;29;20128;-95
2023/10/18 13:25:26;;;;;;;3.97;3.78;;;;;;;;;;6002065;29;20182;-95
2023/10/18 13:28:48;;;;;;;3.70;3.58;;;;;;;;;;5994353;29;20485;-95
2023/10/18 13:31:50;;;;;;;3.40;3.28;;;;;;;;;;6003302;29;20052;-96
2023/10/18 13:34:52;;;;;;;4.60;4.40;;;;;;;;;;5985390;29;20104;-96
2023/10/18 13:37:59;;;;;;;5.28;4.97;;;;;;;;;;5986859;29;20568;-96
2023/10/18 13:41:01;;;;;;;3.63;3.42;;;;;;;;;;5988961;29;20417;-95
2023/10/18 13:44:04;;;;;;;4.07;3.72;;;;;;;;;;5992438;29;20402;-96
2023/10/18 13:47:07;;;;;;;3.90;3.55;;;;;;;;;;5984355;29;20042;-95
2023/10/18 13:50:17;;;;;;;5.78;4.28;;;;;;;;;;5982874;29;20046;-95
2023/10/18 13:53:26;;;;;;;4.07;3.88;;;;;;;;;;5985981;29;20515;-95
2023/10/18 13:56:29;;;;;;;10.07;3.45;;;;;;;;;;5990276;29;20081;-95
2023/10/18 13:59:33;;;;;;;4.55;4.35;;;;;;;;;;5980543;29;20050;-95
2023/10/18 14:02:43;;;;;;;3.42;3.33;;;;;;;;;;5997993;29;20053;-96
2023/10/18 14:05:48;;;;;;;4.13;3.92;;;;;;;;;;5993552;29;20061;-96
2023/10/18 14:08:50;;;;;;;3.67;3.47;;;;;;;;;;5986364;29;20065;-94
2023/10/18 14:11:52;;;;;;;2.92;2.83;;;;;;;;;;5999269;29;20043;-95
2023/10/18 14:14:55;;;;;;;4.07;3.88;;;;;;;;;;5989427;29;20058;-95
2023/10/18 14:17:57;;;;;;;4.43;4.03;;;;;;;;;;5985898;29;20126;-95
2023/10/18 14:21:04;;;;;;;4.53;4.30;;;;;;;;;;5986029;29;20049;-95
2023/10/18 14:24:07;;;;;;;4.32;4.13;;;;;;;;;;5994408;29;20113;-95
2023/10/18 14:27:09;;;;;;;3.63;3.42;;;;;;;;;;5991735;29;20128;-94
2023/10/18 14:30:12;;;;;;;4.10;3.97;;;;;;;;;;6001207;29;20056;-95
2023/10/18 14:33:14;;;;;;;4.35;4.15;;;;;;;;;;5987309;29;20077;-95
2023/10/18 14:36:18;;;;;;;5.78;4.18;;;;;;;;;;5979812;29;20042;-95
2023/10/18 14:39:22;;;;;;;3.47;3.38;;;;;;;;;;5991769;29;20886;-95
2023/10/18 14:42:29;;;;;;;3.78;3.58;;;;;;;;;;5990650;29;20046;-96
2023/10/18 14:45:35;;;;;;;4.72;4.50;;;;;;;;;;5991187;29;20046;-96
2023/10/18 14:48:37;;;;;;;4.90;4.60;;;;;;;;;;5981648;29;20046;-95
2023/10/18 14:51:44;;;;;;;3.47;3.38;;;;;;;;;;6000775;29;20048;-95
2023/10/18 14:54:49;;;;;;;4.15;3.95;;;;;;;;;;5993473;29;20485;-95
2023/10/18 14:57:50;;;;;;;3.25;3.15;;;;;;;;;;5996466;29;20050;-94
2023/10/18 15:00:52;;;;;;;4.38;4.03;;;;;;;;;;5989853;29;20046;-96
2023/10/18 15:03:54;;;;;;;4.05;3.80;;;;;;;;;;5985381;29;20053;-95
2023/10/18 15:06:57;;;;;;;3.85;3.70;;;;;;;;;;5983148;29;20054;-95
2023/10/18 15:09:59;;;;;;;4.22;4.03;;;;;;;;;;5996877;29;20120;-94
2023/10/18 15:13:01;;;;;;;3.70;3.50;;;;;;;;;;6000683;29;20046;-95
2023/10/18 15:16:06;;;;;;;4.50;4.30;;;;;;;;;;5996149;29;20042;-96
2023/10/18 15:19:09;;;;;;;4.50;4.30;;;;;;;;;;5996393;29;20069;-95
2023/10/18 15:22:12;;;;;;;3.55;3.45;;;;;;;;;;6001175;29;20042;-96
2023/10/18 15:25:16;;;;;;;6.03;5.63;;;;;;;;;;5984797;29;20042;-96
2023/10/18 15:28:18;;;;;;;3.67;3.50;;;;;;;;;;5982741;29;20058;-96
2023/10/18 15:31:21;;;;;;;4.05;3.85;;;;;;;;;;5983356;29;20418;-96
2023/10/18 15:34:24;;;;;;;6.38;6.07;;;;;;;;;;5985549;29;20517;-95
2023/10/18 15:37:26;;;;;;;6.85;5.15;;;;;;;;;;5983351;29;20347;-95
2023/10/18 15:40:30;;;;;;;4.43;4.22;;;;;;;;;;5986335;29;20537;-95
2023/10/18 15:43:49;;;;;;;8.10;5.50;;;;;;;;;;5991444;29;20529;-95
2023/10/18 15:46:53;;;;;;;4.25;4.03;;;;;;;;;;5979159;29;20509;-94
2023/10/18 15:49:55;;;;;;;5.07;4.72;;;;;;;;;;5994678;29;20416;-96
2023/10/18 15:52:56;;;;;;;4.65;4.45;;;;;;;;;;5998183;29;20056;-95
2023/10/18 15:55:58;;;;;;;4.95;4.75;;;;;;;;;;5984559;29;20074;-96
2023/10/18 15:59:01;;;;;;;5.88;5.50;;;;;;;;;;5981865;29;20073;-95
2023/10/18 16:02:12;;;;;;;5.82;5.47;;;;;;;;;;5995941;29;20129;-95
2023/10/18 16:05:14;;;;;;;4.63;4.43;;;;;;;;;;5991097;29;20194;-94
2023/10/18 16:08:17;;;;;;;5.07;4.88;;;;;;;;;;5982321;29;20138;-94
2023/10/18 16:11:27;;;;;;;5.97;5.50;;;;;;;;;;5987376;29;20127;-95
2023/10/18 16:14:29;;;;;;;3.65;3.55;;;;;;;;;;5989749;29;20489;-95
2023/10/18 16:17:33;;;;;;;5.45;5.15;;;;;;;;;;5994713;29;20047;-95
2023/10/18 16:20:35;;;;;;;6.95;6.53;;;;;;;;;;5980127;29;21179;-95
2023/10/18 16:23:41;;;;;;;5.32;5.13;;;;;;;;;;5991601;29;20437;-94
2023/10/18 16:26:43;;;;;;;5.53;5.22;;;;;;;;;;6005450;29;20053;-95
2023/10/18 16:29:49;;;;;;;5.43;5.22;;;;;;;;;;5988935;29;20449;-95
2023/10/18 16:32:50;;;;;;;4.97;4.78;;;;;;;;;;5995755;29;20472;-95
2023/10/18 16:35:58;;;;;;;5.80;5.50;;;;;;;;;;5997298;29;20119;-95
2023/10/18 16:39:04;;;;;;;4.88;4.68;;;;;;;;;;5981983;29;20406;-94
2023/10/18 16:42:06;;;;;;;5.20;4.90;;;;;;;;;;5997994;29;20045;-93
2023/10/18 16:45:08;;;;;;;4.43;4.22;;;;;;;;;;5992337;29;20045;-93
2023/10/18 16:48:10;;;;;;;5.10;4.80;;;;;;;;;;6001752;29;20046;-93
2023/10/18 16:51:12;;;;;;;4.20;4.10;;;;;;;;;;6000142;29;20153;-94
2023/10/18 16:54:14;;;;;;;6.00;5.70;;;;;;;;;;5995343;29;20166;-94
2023/10/18 16:57:16;;;;;;;5.88;5.57;;;;;;;;;;5995759;29;20045;-92
2023/10/18 17:00:22;;;;;;;6.05;5.53;;;;;;;;;;5986943;29;20054;-94
2023/10/18 17:03:25;;;;;;;5.40;5.03;;;;;;;;;;5986910;29;20046;-94
2023/10/18 17:06:29;;;;;;;5.32;5.07;;;;;;;;;;5990936;29;20286;-94
2023/10/18 17:09:30;;;;;;;5.40;5.10;;;;;;;;;;5988489;29;20041;-94
2023/10/18 17:12:33;;;;;;;10.75;6.75;;;;;;;;;;5994861;29;20056;-94
2023/10/18 17:15:36;;;;;;;5.40;5.10;;;;;;;;;;5986688;29;20110;-93
2023/10/18 17:18:38;;;;;;;5.13;4.85;;;;;;;;;;5990270;29;20049;-93
2023/10/18 17:21:39;;;;;;;5.32;4.97;;;;;;;;;;5987988;29;20045;-94
2023/10/18 17:24:41;;;;;;;4.88;4.57;;;;;;;;;;5998122;29;20405;-93
2023/10/18 17:27:45;;;;;;;5.82;5.35;;;;;;;;;;5982981;29;20540;-93
2023/10/18 17:30:47;;;;;;;4.35;4.15;;;;;;;;;;5987427;29;20050;-94
2023/10/18 17:33:49;;;;;;;6.35;5.70;;;;;;;;;;5985311;29;20058;-94
2023/10/18 17:36:51;;;;;;;5.07;4.78;;;;;;;;;;5991172;29;20084;-94
2023/10/18 17:39:55;;;;;;;4.97;4.75;;;;;;;;;;5989667;29;20049;-94
2023/10/18 17:42:57;;;;;;;5.40;5.10;;;;;;;;;;6002281;29;20053;-94
2023/10/18 17:45:59;;;;;;;5.40;5.10;;;;;;;;;;5995209;29;20457;-94
2023/10/18 17:49:01;;;;;;;5.05;4.75;;;;;;;;;;5992369;29;20046;-94
2023/10/18 17:52:03;;;;;;;5.35;5.15;;;;;;;;;;5995984;29;20041;-93
2023/10/18 17:55:05;;;;;;;6.30;5.80;;;;;;;;;;5990415;29;20096;-94
2023/10/18 17:58:09;;;;;;;6.13;5.72;;;;;;;;;;5989886;29;20045;-93
2023/10/18 18:01:26;;;;;;;5.25;4.95;;;;;;;;;;5986621;29;20173;-93
2023/10/18 18:04:30;;;;;;;6.22;5.82;;;;;;;;;;5990137;29;20057;-94
2023/10/18 18:07:31;;;;;;;4.80;4.60;;;;;;;;;;5981205;29;20045;-94
2023/10/18 18:10:37;;;;;;;6.43;5.88;;;;;;;;;;6006458;29;20280;-95
2023/10/18 18:13:45;;;;;;;4.85;4.55;;;;;;;;;;6003578;29;20061;-94
2023/10/18 18:16:47;;;;;;;5.70;5.38;;;;;;;;;;5995629;29;20476;-93
2023/10/18 18:19:49;;;;;;;5.75;5.45;;;;;;;;;;5991755;29;20053;-94
2023/10/18 18:22:51;;;;;;;5.75;5.45;;;;;;;;;;5989116;29;20060;-93
2023/10/18 18:25:55;;;;;;;5.13;4.82;;;;;;;;;;5989457;29;20405;-93
2023/10/18 18:28:59;;;;;;;5.07;4.82;;;;;;;;;;5982431;29;20595;-93
2023/10/18 18:32:00;;;;;;;14.35;13.40;;;;;;;;;;5988479;29;20046;-94
2023/10/18 18:35:03;;;;;;;5.22;5.03;;;;;;;;;;5986243;29;20133;-94
2023/10/18 18:38:05;;;;;;;5.22;4.93;;;;;;;;;;5992438;29;20068;-94
2023/10/18 18:41:08;;;;;;;5.80;5.50;;;;;;;;;;5990902;29;20114;-93
2023/10/18 18:44:11;;;;;;;5.85;5.45;;;;;;;;;;5986739;29;20049;-94
2023/10/18 18:47:12;;;;;;;6.72;6.13;;;;;;;;;;5987608;29;20213;-94
2023/10/18 18:50:14;;;;;;;5.32;4.80;;;;;;;;;;5989621;29;20089;-94
2023/10/18 18:53:17;;;;;;;5.25;4.95;;;;;;;;;;5994195;29;20553;-93
2023/10/18 18:56:19;;;;;;;5.05;4.85;;;;;;;;;;5993049;29;20053;-93
2023/10/18 18:59:22;;;;;;;5.18;4.93;;;;;;;;;;5987428;29;20065;-94
2023/10/18 19:02:25;;;;;;;5.00;4.65;;;;;;;;;;5981821;29;20413;-94
2023/10/18 19:05:27;;;;;;;6.38;5.82;;;;;;;;;;5983391;29;20069;-94
2023/10/18 19:08:29;;;;;;;4.65;4.43;;;;;;;;;;5978138;29;20182;-94
2023/10/18 19:11:31;;;;;;;5.95;5.32;;;;;;;;;;5984201;29;20041;-94
2023/10/18 19:14:32;;;;;;;5.85;5.45;;;;;;;;;;5988188;29;20092;-94
2023/10/18 19:17:34;;;;;;;5.90;5.60;;;;;;;;;;5988024;29;20061;-94